Pincher Creek Airport
CZPC : now visible

Airfield :











YOU CAN JOIN US ON...

 
LOGIN :

Register | Disclaimer

   EN    FR    IT 

 









Legend :    VFR   Marginal VFR   IFR   Intensive IFR   Very Intensive IFR
Visi :
Ceiling :
>= 8 km
>= 3000ft
5 to 8 km
1000 to 3000 ft
1500m to 5 km
500 to 1000 ft
800 to 1500m
200 to 500 ft
< 800m
< 200 ft
Symbols :   Thunderstorms  Fog  Heavy snow  Heavy precipitations  Wind > 20 kt






- Airport Elevation : 3903 ft


CZPC - Pincher Creek

CURRENT METAR :
  • 221413Z AUTO 36006KT 300V010 1/4SM +SN VV009 00/M00 A2991 RMK ICG INTMT PRESRR SLP170

EXPIRED METARs :
  • 221400Z AUTO 34003KT 290V360 5/8SM -SN BKN013 OVC020 00/M00 A2990 RMK ICG PRESRR SLP143
  • 221344Z AUTO 01012G17KT 1SM -SN OVC012 01/M01 A2988 RMK ICG PAST HR SLP157
  • 221327Z AUTO 03012G23KT 1 1/4SM -SN BKN010 OVC014 01/M01 A2987 RMK VIS VRB 3/4-2 1/2 ICG PRESRR SLP152
  • 221318Z AUTO 04016KT 5SM -RA BR OVC012 01/M00 A2985 RMK SLP145
  • 221234Z AUTO 04007KT 330V060 6SM RA BR BKN014 OVC018 03/02 A2982 RMK SLP128
  • 221221Z AUTO 36005KT 350V060 5SM RA BR OVC020 03/02 A2982 RMK SLP126
  • 221200Z AUTO 03012KT 8SM -RA BKN021 BKN026 OVC033 04/02 A2981 RMK PCPN 0.8MM PAST HR SLP103
  • 221155Z AUTO 05010G16KT 7SM -RA BKN021 BKN029 OVC034 04/02 A2981 RMK SLP120
  • 221146Z AUTO 04012KT 8SM -RA FEW019 SCT024 OVC032 04/02 A2980 RMK WSHFT AT 1135Z SLP118

TAF N/A
CZEG FIR / North America



MET'MAP, your aeronautical weather chart ! - Copyright ORBIFLY December 2007 - Disclaimer

ORBIFLY MET'MAP TEAM :

Programming & Development : Alexandra Zaïnal
Concept & original design : Baudouin d'Aumeries
Assistance for programming : Marc-Olivier Méhu
Technical & hardware support : Manuel Goepfert

Contact : metmap@orbifly.com




SOURCES & CREDITS :

   NOAA       Earth
Advisory